createdAt,value
2022-10-11T00:00:03.854Z,1015.15
2022-10-11T00:01:03.769Z,1015.18
2022-10-11T00:02:01.985Z,1015.20
2022-10-11T00:03:02.145Z,1015.21
2022-10-11T00:04:01.991Z,1015.25
2022-10-11T00:05:01.995Z,1015.26
2022-10-11T00:06:02.085Z,1015.24
2022-10-11T00:07:02.435Z,1015.27
2022-10-11T00:08:02.351Z,1015.25
2022-10-11T00:09:02.154Z,1015.24
2022-10-11T00:10:02.166Z,1015.28
2022-10-11T00:11:02.623Z,1015.29
2022-10-11T00:12:03.014Z,1015.29
2022-10-11T00:13:02.551Z,1015.30
2022-10-11T00:14:02.657Z,1015.28
2022-10-11T00:15:02.771Z,1015.32
2022-10-11T00:16:03.464Z,1015.27
2022-10-11T00:17:02.663Z,1015.30
2022-10-11T00:18:05.396Z,1015.31
2022-10-11T00:19:02.725Z,1015.32
2022-10-11T00:20:02.574Z,1015.31
2022-10-11T00:21:03.007Z,1015.31
2022-10-11T00:22:02.280Z,1015.30
2022-10-11T00:23:02.327Z,1015.26
2022-10-11T00:24:02.258Z,1015.33
2022-10-11T00:25:01.914Z,1015.28
2022-10-11T00:26:02.211Z,1015.33
2022-10-11T00:27:02.443Z,1015.29
2022-10-11T00:28:02.955Z,1015.31
2022-10-11T00:29:02.727Z,1015.32
2022-10-11T00:30:02.485Z,1015.38
2022-10-11T00:31:03.357Z,1015.37
2022-10-11T00:32:02.445Z,1015.40
2022-10-11T00:33:02.824Z,1015.39
2022-10-11T00:34:02.504Z,1015.41
2022-10-11T00:35:03.030Z,1015.40
2022-10-11T00:36:02.940Z,1015.42
2022-10-11T00:37:02.206Z,1015.42
2022-10-11T00:38:02.019Z,1015.42
2022-10-11T00:39:02.293Z,1015.41
2022-10-11T00:40:02.066Z,1015.43
2022-10-11T00:41:01.720Z,1015.45
2022-10-11T00:42:02.176Z,1015.46
2022-10-11T00:43:02.593Z,1015.49
2022-10-11T00:44:02.555Z,1015.48
2022-10-11T00:45:02.525Z,1015.49
2022-10-11T00:46:02.507Z,1015.48
2022-10-11T00:47:02.801Z,1015.51
2022-10-11T00:48:02.718Z,1015.52
2022-10-11T00:49:02.322Z,1015.54
2022-10-11T00:50:02.628Z,1015.50
2022-10-11T00:51:03.173Z,1015.54
2022-10-11T00:52:02.073Z,1015.54
2022-10-11T00:53:02.494Z,1015.58
2022-10-11T00:54:02.142Z,1015.56
2022-10-11T00:55:02.213Z,1015.54
2022-10-11T00:56:02.377Z,1015.52
2022-10-11T00:57:02.338Z,1015.52
2022-10-11T00:58:02.703Z,1015.56
2022-10-11T00:59:02.543Z,1015.54
2022-10-11T01:00:02.267Z,1015.54
2022-10-11T01:01:02.789Z,1015.52
2022-10-11T01:02:02.328Z,1015.51
2022-10-11T01:03:02.695Z,1015.50
2022-10-11T01:04:02.400Z,1015.50
2022-10-11T01:05:27.712Z,1015.51
2022-10-11T01:06:02.817Z,1015.52
2022-10-11T01:07:02.581Z,1015.50
2022-10-11T01:08:03.001Z,1015.47
2022-10-11T01:09:02.998Z,1015.47
2022-10-11T01:10:02.884Z,1015.55
2022-10-11T01:11:02.591Z,1015.55
2022-10-11T01:12:03.085Z,1015.56
2022-10-11T01:13:03.139Z,1015.53
2022-10-11T01:14:03.409Z,1015.50
2022-10-11T01:15:03.517Z,1015.52
2022-10-11T01:16:03.660Z,1015.52
2022-10-11T01:17:02.696Z,1015.52
2022-10-11T01:18:02.365Z,1015.51
2022-10-11T01:19:02.946Z,1015.51
2022-10-11T01:20:02.925Z,1015.46
2022-10-11T01:21:02.267Z,1015.52
2022-10-11T01:22:02.854Z,1015.49
2022-10-11T01:23:03.055Z,1015.52
2022-10-11T01:24:08.180Z,1015.51
2022-10-11T01:25:02.818Z,1015.51
2022-10-11T01:26:03.672Z,1015.52
2022-10-11T01:27:03.552Z,1015.52
2022-10-11T01:28:03.226Z,1015.50
2022-10-11T01:29:03.190Z,1015.52
2022-10-11T01:30:02.934Z,1015.51
2022-10-11T01:31:03.187Z,1015.54
2022-10-11T01:32:03.062Z,1015.52
2022-10-11T01:33:02.625Z,1015.51
2022-10-11T01:34:03.053Z,1015.52
2022-10-11T01:35:03.013Z,1015.52
2022-10-11T01:36:02.944Z,1015.54
2022-10-11T01:37:02.951Z,1015.53
2022-10-11T01:38:02.619Z,1015.58
2022-10-11T01:39:03.046Z,1015.56
2022-10-11T01:40:03.213Z,1015.59
2022-10-11T01:41:02.752Z,1015.60
2022-10-11T01:42:03.239Z,1015.59
2022-10-11T01:43:03.403Z,1015.58
2022-10-11T01:44:03.167Z,1015.67
2022-10-11T01:45:03.028Z,1015.62
2022-10-11T01:46:03.815Z,1015.63
2022-10-11T01:47:02.679Z,1015.68
2022-10-11T01:48:02.844Z,1015.68
2022-10-11T01:49:02.969Z,1015.68
2022-10-11T01:50:02.346Z,1015.70
2022-10-11T01:51:02.463Z,1015.68
2022-10-11T01:52:02.881Z,1015.70
2022-10-11T01:53:03.245Z,1015.70
2022-10-11T01:54:02.563Z,1015.74
2022-10-11T01:55:09.518Z,1015.71
2022-10-11T01:56:03.555Z,1015.72
2022-10-11T01:57:03.168Z,1015.72
2022-10-11T01:58:03.104Z,1015.72
2022-10-11T01:59:03.641Z,1015.74
2022-10-11T02:00:03.624Z,1015.71
2022-10-11T02:01:03.602Z,1015.71
2022-10-11T02:02:02.838Z,1015.73
2022-10-11T02:03:02.762Z,1015.71
2022-10-11T02:04:03.153Z,1015.72
2022-10-11T02:05:02.960Z,1015.72
2022-10-11T02:06:03.439Z,1015.68
2022-10-11T02:07:02.957Z,1015.70
2022-10-11T02:08:03.351Z,1015.73
2022-10-11T02:09:07.794Z,1015.73
2022-10-11T02:10:03.341Z,1015.71
2022-10-11T02:11:02.974Z,1015.72
2022-10-11T02:12:03.014Z,1015.72
2022-10-11T02:13:03.318Z,1015.75
2022-10-11T02:14:03.006Z,1015.77
2022-10-11T02:15:03.399Z,1015.79
2022-10-11T02:16:03.812Z,1015.78
2022-10-11T02:17:02.870Z,1015.81
2022-10-11T02:18:03.001Z,1015.82
2022-10-11T02:19:02.403Z,1015.81
2022-10-11T02:20:02.794Z,1015.81
2022-10-11T02:21:02.695Z,1015.78
2022-10-11T02:22:02.796Z,1015.77
2022-10-11T02:23:02.547Z,1015.80
2022-10-11T02:24:02.657Z,1015.75
2022-10-11T02:25:02.638Z,1015.76
2022-10-11T02:26:03.026Z,1015.78
2022-10-11T02:27:02.619Z,1015.75
2022-10-11T02:28:02.510Z,1015.77
2022-10-11T02:29:02.571Z,1015.79
2022-10-11T02:30:03.016Z,1015.78
2022-10-11T02:31:03.033Z,1015.77
2022-10-11T02:32:02.993Z,1015.77
2022-10-11T02:33:03.223Z,1015.80
2022-10-11T02:34:03.008Z,1015.76
2022-10-11T02:35:02.818Z,1015.83
2022-10-11T02:36:03.818Z,1015.80
2022-10-11T02:37:03.619Z,1015.87
2022-10-11T02:38:03.735Z,1015.84
2022-10-11T02:39:03.646Z,1015.87
2022-10-11T02:40:03.606Z,1015.87
2022-10-11T02:41:03.394Z,1015.88
2022-10-11T02:42:02.596Z,1015.92
2022-10-11T02:43:02.699Z,1015.85
2022-10-11T02:44:02.673Z,1015.90
2022-10-11T02:45:02.426Z,1015.88
2022-10-11T02:46:03.213Z,1015.92
2022-10-11T02:47:02.797Z,1015.92
2022-10-11T02:48:02.965Z,1015.95
2022-10-11T02:49:02.652Z,1015.92
2022-10-11T02:50:02.588Z,1015.97
2022-10-11T02:51:03.015Z,1016.01
2022-10-11T02:52:03.476Z,1016.00
2022-10-11T02:53:02.975Z,1015.98
2022-10-11T02:54:03.266Z,1016.02
2022-10-11T02:55:03.162Z,1016.03
2022-10-11T02:56:03.536Z,1016.05
2022-10-11T02:57:03.581Z,1016.04
2022-10-11T02:58:03.694Z,1016.06
2022-10-11T02:59:03.488Z,1016.11
2022-10-11T03:00:03.749Z,1016.09
2022-10-11T03:01:03.126Z,1016.10
2022-10-11T03:02:02.402Z,1016.07
2022-10-11T03:03:02.042Z,1016.08
2022-10-11T03:04:01.806Z,1016.10
2022-10-11T03:05:02.081Z,1016.11
2022-10-11T03:06:02.574Z,1016.11
2022-10-11T03:07:02.471Z,1016.13
2022-10-11T03:08:02.960Z,1016.13
2022-10-11T03:09:02.551Z,1016.17
2022-10-11T03:10:02.953Z,1016.12
2022-10-11T03:11:02.627Z,1016.14
2022-10-11T03:12:03.004Z,1016.12
2022-10-11T03:13:02.908Z,1016.17
2022-10-11T03:14:02.638Z,1016.16
2022-10-11T03:15:03.014Z,1016.18
2022-10-11T03:16:03.804Z,1016.16
2022-10-11T03:17:23.770Z,1016.20
2022-10-11T03:18:02.240Z,1016.17
2022-10-11T03:19:02.000Z,1016.18
2022-10-11T03:20:02.413Z,1016.24
2022-10-11T03:21:02.095Z,1016.21
2022-10-11T03:22:02.608Z,1016.18
2022-10-11T03:23:02.325Z,1016.21
2022-10-11T03:24:02.260Z,1016.23
2022-10-11T03:25:04.462Z,1016.26
2022-10-11T03:26:03.209Z,1016.21
2022-10-11T03:27:02.645Z,1016.25
2022-10-11T03:28:02.894Z,1016.25
2022-10-11T03:29:02.734Z,1016.22
2022-10-11T03:30:02.851Z,1016.26
2022-10-11T03:31:02.501Z,1016.25
2022-10-11T03:32:02.613Z,1016.26
2022-10-11T03:33:02.250Z,1016.30
2022-10-11T03:34:02.448Z,1016.33
2022-10-11T03:35:02.231Z,1016.30
2022-10-11T03:36:02.765Z,1016.32
2022-10-11T03:37:02.863Z,1016.36
2022-10-11T03:38:02.682Z,1016.37
2022-10-11T03:39:02.540Z,1016.37
2022-10-11T03:40:02.873Z,1016.35
2022-10-11T03:41:02.440Z,1016.40
2022-10-11T03:42:01.839Z,1016.40
2022-10-11T03:43:01.923Z,1016.40
2022-10-11T03:44:02.311Z,1016.39
2022-10-11T03:45:01.958Z,1016.43
2022-10-11T03:46:02.285Z,1016.46
2022-10-11T03:47:02.017Z,1016.43
2022-10-11T03:48:02.017Z,1016.43
2022-10-11T03:49:02.430Z,1016.42
2022-10-11T03:50:01.985Z,1016.44
2022-10-11T03:51:02.036Z,1016.42
2022-10-11T03:52:02.809Z,1016.45
2022-10-11T03:53:02.417Z,1016.44
2022-10-11T03:54:02.888Z,1016.45
2022-10-11T03:55:02.404Z,1016.44
2022-10-11T03:56:07.392Z,1016.46
2022-10-11T03:57:01.792Z,1016.49
2022-10-11T03:58:02.023Z,1016.50
2022-10-11T03:59:01.790Z,1016.51
2022-10-11T04:00:01.713Z,1016.52
2022-10-11T04:01:02.239Z,1016.52
2022-10-11T04:02:03.354Z,1016.54
2022-10-11T04:03:03.093Z,1016.55
2022-10-11T04:04:03.193Z,1016.56
2022-10-11T04:05:03.600Z,1016.53
2022-10-11T04:06:03.835Z,1016.60
2022-10-11T04:07:03.156Z,1016.60
2022-10-11T04:08:02.866Z,1016.63
2022-10-11T04:09:02.559Z,1016.63
2022-10-11T04:10:02.841Z,1016.65
2022-10-11T04:11:02.542Z,1016.61
2022-10-11T04:12:02.840Z,1016.67
2022-10-11T04:13:03.008Z,1016.67
2022-10-11T04:14:03.396Z,1016.65
2022-10-11T04:15:02.940Z,1016.65
2022-10-11T04:16:03.852Z,1016.66
2022-10-11T04:17:03.198Z,1016.67
2022-10-11T04:18:03.347Z,1016.67
2022-10-11T04:19:03.544Z,1016.70
2022-10-11T04:20:02.957Z,1016.69
2022-10-11T04:21:03.304Z,1016.69
2022-10-11T04:22:03.006Z,1016.68
2022-10-11T04:23:02.837Z,1016.66
2022-10-11T04:24:02.965Z,1016.70
2022-10-11T04:25:02.638Z,1016.72
2022-10-11T04:26:03.599Z,1016.76
2022-10-11T04:27:03.267Z,1016.74
2022-10-11T04:28:03.653Z,1016.74
2022-10-11T04:29:03.364Z,1016.75
2022-10-11T04:30:03.751Z,1016.77
2022-10-11T04:31:03.154Z,1016.78
2022-10-11T04:32:02.606Z,1016.78
2022-10-11T04:33:02.476Z,1016.79
2022-10-11T04:34:02.765Z,1016.79
2022-10-11T04:35:04.657Z,1016.78
2022-10-11T04:36:03.047Z,1016.77
2022-10-11T04:37:03.087Z,1016.80
2022-10-11T04:38:02.898Z,1016.76
2022-10-11T04:39:02.801Z,1016.78
2022-10-11T04:40:03.228Z,1016.79
2022-10-11T04:41:02.759Z,1016.74
2022-10-11T04:42:03.827Z,1016.76
2022-10-11T04:43:03.650Z,1016.76
2022-10-11T04:44:03.619Z,1016.79
2022-10-11T04:45:03.360Z,1016.80
2022-10-11T04:46:04.186Z,1016.77
2022-10-11T04:47:03.052Z,1016.78
2022-10-11T04:48:03.157Z,1016.78
2022-10-11T04:49:02.907Z,1016.81
2022-10-11T04:50:03.208Z,1016.79
2022-10-11T04:51:02.990Z,1016.81
2022-10-11T04:52:03.660Z,1016.82
2022-10-11T04:53:03.516Z,1016.82
2022-10-11T04:54:03.633Z,1016.83
2022-10-11T04:55:03.366Z,1016.86
2022-10-11T04:56:04.077Z,1016.88
2022-10-11T04:57:03.404Z,1016.81
2022-10-11T04:58:03.802Z,1016.82
2022-10-11T04:59:03.397Z,1016.88
2022-10-11T05:00:03.774Z,1016.86
2022-10-11T05:01:03.177Z,1016.84
2022-10-11T05:02:02.645Z,1016.87
2022-10-11T05:03:02.644Z,1016.89
2022-10-11T05:04:02.642Z,1016.90
2022-10-11T05:05:03.074Z,1016.92
2022-10-11T05:06:05.644Z,1016.90
2022-10-11T05:07:03.165Z,1016.87
2022-10-11T05:08:03.237Z,1016.91
2022-10-11T05:09:03.060Z,1016.94
2022-10-11T05:10:02.895Z,1016.91
2022-10-11T05:11:03.310Z,1016.93
2022-10-11T05:12:03.001Z,1016.94
2022-10-11T05:13:02.755Z,1016.92
2022-10-11T05:14:02.913Z,1016.96
2022-10-11T05:15:02.950Z,1016.94
2022-10-11T05:16:05.879Z,1016.94
2022-10-11T05:17:02.578Z,1016.96
2022-10-11T05:18:02.962Z,1016.97
2022-10-11T05:19:02.606Z,1016.95
2022-10-11T05:20:02.804Z,1016.96
2022-10-11T05:21:02.490Z,1016.96
2022-10-11T05:22:02.864Z,1016.98
2022-10-11T05:23:02.661Z,1016.98
2022-10-11T05:24:02.847Z,1017.00
2022-10-11T05:25:02.969Z,1017.01
2022-10-11T05:26:03.324Z,1017.03
2022-10-11T05:27:03.618Z,1017.04
2022-10-11T05:28:02.626Z,1017.04
2022-10-11T05:29:02.870Z,1017.03
2022-10-11T05:30:02.954Z,1017.05
2022-10-11T05:31:02.615Z,1017.06
2022-10-11T05:32:03.202Z,1017.10
2022-10-11T05:33:03.617Z,1017.12
2022-10-11T05:34:03.650Z,1017.14
2022-10-11T05:35:03.260Z,1017.14
2022-10-11T05:36:03.425Z,1017.14
2022-10-11T05:37:03.714Z,1017.17
2022-10-11T05:38:03.296Z,1017.12
2022-10-11T05:39:03.632Z,1017.18
2022-10-11T05:40:03.534Z,1017.18
2022-10-11T05:41:03.449Z,1017.17
2022-10-11T05:42:05.506Z,1017.18
2022-10-11T05:43:02.694Z,1017.20
2022-10-11T05:44:03.170Z,1017.21
2022-10-11T05:45:02.688Z,1017.19
2022-10-11T05:46:03.759Z,1017.18
2022-10-11T05:47:03.280Z,1017.22
2022-10-11T05:48:02.956Z,1017.21
2022-10-11T05:49:03.296Z,1017.22
2022-10-11T05:50:02.820Z,1017.25
2022-10-11T05:51:02.780Z,1017.21
2022-10-11T05:52:02.869Z,1017.25
2022-10-11T05:53:03.086Z,1017.21
2022-10-11T05:54:03.266Z,1017.29
2022-10-11T05:55:03.124Z,1017.28
2022-10-11T05:56:03.798Z,1017.30
2022-10-11T05:57:03.475Z,1017.32
2022-10-11T05:58:03.407Z,1017.30
2022-10-11T05:59:03.620Z,1017.31
2022-10-11T06:00:03.289Z,1017.30
2022-10-11T06:01:03.746Z,1017.34
2022-10-11T06:02:03.152Z,1017.35
2022-10-11T06:03:02.914Z,1017.36
2022-10-11T06:04:03.193Z,1017.38
2022-10-11T06:05:02.745Z,1017.36
2022-10-11T06:06:03.383Z,1017.32
2022-10-11T06:07:02.746Z,1017.33
2022-10-11T06:08:02.382Z,1017.38
2022-10-11T06:09:02.783Z,1017.40
2022-10-11T06:10:02.447Z,1017.40
2022-10-11T06:11:02.282Z,1017.43
2022-10-11T06:12:02.615Z,1017.43
2022-10-11T06:13:03.060Z,1017.46
2022-10-11T06:14:02.721Z,1017.45
2022-10-11T06:15:02.926Z,1017.50
2022-10-11T06:16:03.696Z,1017.49
2022-10-11T06:17:02.236Z,1017.48
2022-10-11T06:18:02.482Z,1017.49
2022-10-11T06:19:02.595Z,1017.51
2022-10-11T06:20:02.762Z,1017.52
2022-10-11T06:21:02.489Z,1017.52
2022-10-11T06:22:02.479Z,1017.55
2022-10-11T06:23:02.755Z,1017.56
2022-10-11T06:24:02.655Z,1017.56
2022-10-11T06:25:02.385Z,1017.58
2022-10-11T06:26:03.041Z,1017.59
2022-10-11T06:27:02.954Z,1017.61
2022-10-11T06:28:03.128Z,1017.61
2022-10-11T06:29:02.701Z,1017.64
2022-10-11T06:30:03.108Z,1017.65
2022-10-11T06:31:03.004Z,1017.67
2022-10-11T06:32:02.922Z,1017.69
2022-10-11T06:33:04.978Z,1017.69
2022-10-11T06:34:02.979Z,1017.72
2022-10-11T06:35:02.921Z,1017.73
2022-10-11T06:36:03.645Z,1017.75
2022-10-11T06:37:02.257Z,1017.71
2022-10-11T06:38:02.454Z,1017.73
2022-10-11T06:39:02.268Z,1017.76
2022-10-11T06:40:02.498Z,1017.77
2022-10-11T06:41:02.272Z,1017.76
2022-10-11T06:42:02.988Z,1017.75
2022-10-11T06:43:02.582Z,1017.78
2022-10-11T06:44:02.932Z,1017.79
2022-10-11T06:45:03.010Z,1017.82
2022-10-11T06:46:02.701Z,1017.82
2022-10-11T06:47:03.305Z,1017.83
2022-10-11T06:48:03.195Z,1017.80
2022-10-11T06:49:03.208Z,1017.83
2022-10-11T06:50:03.083Z,1017.83
2022-10-11T06:51:03.398Z,1017.85
2022-10-11T06:52:02.440Z,1017.88
2022-10-11T06:53:02.414Z,1017.89
2022-10-11T06:54:02.626Z,1017.95
2022-10-11T06:55:02.049Z,1017.94
2022-10-11T06:56:02.689Z,1017.93
2022-10-11T06:57:03.077Z,1017.92
2022-10-11T06:58:03.257Z,1017.98
2022-10-11T06:59:03.133Z,1017.98
2022-10-11T07:00:03.166Z,1017.98
2022-10-11T07:01:02.766Z,1018.00
2022-10-11T07:02:02.025Z,1018.01
2022-10-11T07:03:02.035Z,1018.04
2022-10-11T07:04:02.638Z,1018.03
2022-10-11T07:05:02.103Z,1018.03
2022-10-11T07:06:02.795Z,1018.08
2022-10-11T07:07:02.469Z,1018.10
2022-10-11T07:08:02.504Z,1018.13
2022-10-11T07:09:02.234Z,1018.18
2022-10-11T07:10:02.743Z,1018.20
2022-10-11T07:11:02.842Z,1018.17
2022-10-11T07:12:03.175Z,1018.22
2022-10-11T07:13:03.505Z,1018.24
2022-10-11T07:14:03.256Z,1018.21
2022-10-11T07:15:02.861Z,1018.22
2022-10-11T07:16:03.757Z,1018.23
2022-10-11T07:17:01.979Z,1018.21
2022-10-11T07:18:02.405Z,1018.21
2022-10-11T07:19:02.553Z,1018.22
2022-10-11T07:20:02.541Z,1018.22
2022-10-11T07:21:02.131Z,1018.23
2022-10-11T07:22:02.522Z,1018.23
2022-10-11T07:23:02.276Z,1018.27
2022-10-11T07:24:02.559Z,1018.25
2022-10-11T07:25:02.229Z,1018.26
2022-10-11T07:26:02.483Z,1018.27
2022-10-11T07:27:02.447Z,1018.29
2022-10-11T07:28:02.296Z,1018.29
2022-10-11T07:29:02.286Z,1018.29
2022-10-11T07:30:02.613Z,1018.29
2022-10-11T07:31:02.587Z,1018.31
2022-10-11T07:32:02.873Z,1018.30
2022-10-11T07:33:02.836Z,1018.29
2022-10-11T07:34:02.395Z,1018.31
2022-10-11T07:35:02.908Z,1018.29
2022-10-11T07:36:03.277Z,1018.36
2022-10-11T07:37:02.881Z,1018.30
2022-10-11T07:38:02.761Z,1018.32
2022-10-11T07:39:02.643Z,1018.29
2022-10-11T07:40:02.768Z,1018.31
2022-10-11T07:41:03.019Z,1018.32
2022-10-11T07:42:03.060Z,1018.31
2022-10-11T07:43:02.986Z,1018.30
2022-10-11T07:44:02.917Z,1018.31
2022-10-11T07:45:03.280Z,1018.29
2022-10-11T07:46:03.276Z,1018.32
2022-10-11T07:47:05.759Z,1018.30
2022-10-11T07:48:03.269Z,1018.32
2022-10-11T07:49:02.878Z,1018.32
2022-10-11T07:50:02.977Z,1018.32
2022-10-11T07:51:03.436Z,1018.37
2022-10-11T07:52:02.806Z,1018.36
2022-10-11T07:53:02.663Z,1018.36
2022-10-11T07:54:07.036Z,1018.36
2022-10-11T07:55:02.272Z,1018.38
2022-10-11T07:56:03.117Z,1018.35
2022-10-11T07:57:02.692Z,1018.40
2022-10-11T07:58:02.786Z,1018.39
2022-10-11T07:59:02.649Z,1018.40
2022-10-11T08:00:02.373Z,1018.44
2022-10-11T08:01:02.782Z,1018.44
2022-10-11T08:02:03.017Z,1018.46
2022-10-11T08:03:02.946Z,1018.46
2022-10-11T08:04:02.931Z,1018.46
2022-10-11T08:05:03.569Z,1018.49
2022-10-11T08:06:03.910Z,1018.49
2022-10-11T08:07:02.487Z,1018.49
2022-10-11T08:08:02.512Z,1018.49
2022-10-11T08:09:02.332Z,1018.52
2022-10-11T08:10:02.732Z,1018.50
2022-10-11T08:11:02.625Z,1018.50
2022-10-11T08:12:02.903Z,1018.55
2022-10-11T08:13:04.505Z,1018.54
2022-10-11T08:14:02.518Z,1018.57
2022-10-11T08:15:02.598Z,1018.62
2022-10-11T08:16:03.213Z,1018.59
2022-10-11T08:17:03.126Z,1018.63
2022-10-11T08:18:02.819Z,1018.56
2022-10-11T08:19:02.609Z,1018.63
2022-10-11T08:20:02.581Z,1018.59
2022-10-11T08:21:03.048Z,1018.57
2022-10-11T08:22:03.180Z,1018.60
2022-10-11T08:23:03.295Z,1018.61
2022-10-11T08:24:02.989Z,1018.60
2022-10-11T08:25:03.181Z,1018.56
2022-10-11T08:26:03.813Z,1018.58
2022-10-11T08:27:03.372Z,1018.57
2022-10-11T08:28:03.315Z,1018.63
2022-10-11T08:29:03.579Z,1018.61
2022-10-11T08:30:03.222Z,1018.62
2022-10-11T08:31:03.698Z,1018.61
2022-10-11T08:32:02.308Z,1018.60
2022-10-11T08:33:07.595Z,1018.60
2022-10-11T08:34:02.445Z,1018.61
2022-10-11T08:35:02.352Z,1018.60
2022-10-11T08:36:02.831Z,1018.61
2022-10-11T08:37:03.064Z,1018.60
2022-10-11T08:38:02.705Z,1018.63
2022-10-11T08:39:02.804Z,1018.59
2022-10-11T08:40:02.822Z,1018.63
2022-10-11T08:41:02.572Z,1018.66
2022-10-11T08:42:03.424Z,1018.64
2022-10-11T08:43:03.475Z,1018.66
2022-10-11T08:44:02.967Z,1018.69
2022-10-11T08:45:11.057Z,1018.69
2022-10-11T08:46:03.668Z,1018.67
2022-10-11T08:47:02.599Z,1018.67
2022-10-11T08:48:02.881Z,1018.66
2022-10-11T08:49:03.154Z,1018.69
2022-10-11T08:50:03.108Z,1018.68
2022-10-11T08:51:03.009Z,1018.69
2022-10-11T08:52:03.086Z,1018.67
2022-10-11T08:53:02.724Z,1018.69
2022-10-11T08:54:07.398Z,1018.70
2022-10-11T08:55:02.767Z,1018.70
2022-10-11T08:56:03.038Z,1018.69
2022-10-11T08:57:03.440Z,1018.69
2022-10-11T08:58:02.996Z,1018.70
2022-10-11T08:59:03.337Z,1018.72
2022-10-11T09:00:03.505Z,1018.73
2022-10-11T09:01:03.058Z,1018.72
2022-10-11T09:02:03.802Z,1018.73
2022-10-11T09:03:08.580Z,1018.69
2022-10-11T09:04:03.489Z,1018.69
2022-10-11T09:05:03.263Z,1018.73
2022-10-11T09:06:04.240Z,1018.72
2022-10-11T09:07:05.063Z,1018.73
2022-10-11T09:08:03.266Z,1018.73
2022-10-11T09:09:03.103Z,1018.73
2022-10-11T09:10:02.828Z,1018.74
2022-10-11T09:11:03.171Z,1018.75
2022-10-11T09:12:03.285Z,1018.75
2022-10-11T09:13:03.183Z,1018.75
2022-10-11T09:14:03.531Z,1018.75
2022-10-11T09:15:03.217Z,1018.73
2022-10-11T09:16:03.777Z,1018.72
2022-10-11T09:17:02.964Z,1018.75
2022-10-11T09:18:02.533Z,1018.73
2022-10-11T09:19:02.851Z,1018.74
2022-10-11T09:20:02.888Z,1018.74
2022-10-11T09:21:02.396Z,1018.70
2022-10-11T09:22:03.487Z,1018.68
2022-10-11T09:23:02.875Z,1018.69
2022-10-11T09:24:03.391Z,1018.71
2022-10-11T09:25:03.314Z,1018.69
2022-10-11T09:26:03.262Z,1018.71
2022-10-11T09:27:03.083Z,1018.70
2022-10-11T09:28:04.093Z,1018.71
2022-10-11T09:29:03.185Z,1018.71
2022-10-11T09:30:03.640Z,1018.67
2022-10-11T09:31:03.296Z,1018.63
2022-10-11T09:32:03.853Z,1018.64
2022-10-11T09:33:03.379Z,1018.64
2022-10-11T09:34:03.322Z,1018.65
2022-10-11T09:35:03.352Z,1018.64
2022-10-11T09:36:03.907Z,1018.70
2022-10-11T09:37:03.057Z,1018.64
2022-10-11T09:38:03.041Z,1018.68
2022-10-11T09:39:06.458Z,1018.66
2022-10-11T09:40:02.559Z,1018.69
2022-10-11T09:41:02.776Z,1018.68
2022-10-11T09:42:02.454Z,1018.70
2022-10-11T09:43:02.965Z,1018.72
2022-10-11T09:44:02.477Z,1018.66
2022-10-11T09:45:02.609Z,1018.70
2022-10-11T09:46:02.845Z,1018.72
2022-10-11T09:47:03.127Z,1018.67
2022-10-11T09:48:03.461Z,1018.64
2022-10-11T09:49:03.024Z,1018.67
2022-10-11T09:50:03.068Z,1018.68
2022-10-11T09:51:03.337Z,1018.69
2022-10-11T09:52:02.627Z,1018.65
2022-10-11T09:53:03.184Z,1018.67
2022-10-11T09:54:02.825Z,1018.64
2022-10-11T09:55:03.127Z,1018.67
2022-10-11T09:56:03.011Z,1018.68
2022-10-11T09:57:03.758Z,1018.69
2022-10-11T09:58:03.248Z,1018.65
2022-10-11T09:59:03.664Z,1018.67
2022-10-11T10:00:03.660Z,1018.69
2022-10-11T10:01:07.911Z,1018.65
2022-10-11T10:02:02.941Z,1018.66
2022-10-11T10:03:03.247Z,1018.62
2022-10-11T10:04:02.813Z,1018.63
2022-10-11T10:05:02.984Z,1018.62
2022-10-11T10:06:03.522Z,1018.63
2022-10-11T10:07:02.720Z,1018.60
2022-10-11T10:08:04.790Z,1018.61
2022-10-11T10:09:02.955Z,1018.62
2022-10-11T10:10:02.425Z,1018.65
2022-10-11T10:11:02.736Z,1018.69
2022-10-11T10:12:03.046Z,1018.65
2022-10-11T10:13:03.026Z,1018.63
2022-10-11T10:14:03.261Z,1018.63
2022-10-11T10:15:03.339Z,1018.66
2022-10-11T10:16:03.398Z,1018.64
2022-10-11T10:17:02.639Z,1018.67
2022-10-11T10:18:02.897Z,1018.63
2022-10-11T10:19:02.839Z,1018.62
2022-10-11T10:20:02.800Z,1018.65
2022-10-11T10:21:02.846Z,1018.62
2022-10-11T10:22:03.511Z,1018.59
2022-10-11T10:23:03.092Z,1018.60
2022-10-11T10:24:03.391Z,1018.64
2022-10-11T10:25:03.669Z,1018.64
2022-10-11T10:26:03.862Z,1018.63
2022-10-11T10:27:02.827Z,1018.62
2022-10-11T10:28:02.670Z,1018.59
2022-10-11T10:29:02.769Z,1018.64
2022-10-11T10:30:02.886Z,1018.64
2022-10-11T10:31:02.886Z,1018.63
2022-10-11T10:32:18.961Z,1018.64
2022-10-11T10:33:03.188Z,1018.64
2022-10-11T10:34:03.556Z,1018.60
2022-10-11T10:35:03.062Z,1018.60
2022-10-11T10:36:03.367Z,1018.63
2022-10-11T10:37:03.282Z,1018.57
2022-10-11T10:38:03.082Z,1018.53
2022-10-11T10:39:03.077Z,1018.54
2022-10-11T10:40:03.032Z,1018.56
2022-10-11T10:41:03.140Z,1018.57
2022-10-11T10:42:03.377Z,1018.52
2022-10-11T10:43:03.107Z,1018.55
2022-10-11T10:44:03.150Z,1018.55
2022-10-11T10:45:04.151Z,1018.55
2022-10-11T10:46:04.081Z,1018.50
2022-10-11T10:47:02.883Z,1018.53
2022-10-11T10:48:02.697Z,1018.47
2022-10-11T10:50:03.238Z,1018.47
2022-10-11T10:51:07.079Z,1018.50
2022-10-11T10:52:03.176Z,1018.50
2022-10-11T10:53:03.390Z,1018.48
2022-10-11T10:54:03.213Z,1018.47
2022-10-11T10:55:02.858Z,1018.49
2022-10-11T10:56:03.259Z,1018.46
2022-10-11T10:57:03.284Z,1018.50
2022-10-11T10:58:03.297Z,1018.50
2022-10-11T10:59:03.106Z,1018.49
2022-10-11T11:00:03.685Z,1018.52
2022-10-11T11:01:03.194Z,1018.49
2022-10-11T11:02:16.047Z,1018.49
2022-10-11T11:03:03.031Z,1018.49
2022-10-11T11:04:03.359Z,1018.45
2022-10-11T11:05:03.651Z,1018.48
2022-10-11T11:06:04.040Z,1018.45
2022-10-11T11:07:03.550Z,1018.41
2022-10-11T11:08:03.591Z,1018.39
2022-10-11T11:09:03.185Z,1018.39
2022-10-11T11:10:03.831Z,1018.38
2022-10-11T11:11:03.778Z,1018.36
2022-10-11T11:12:03.629Z,1018.37
2022-10-11T11:13:03.478Z,1018.35
2022-10-11T11:14:03.493Z,1018.37
2022-10-11T11:15:03.790Z,1018.29
2022-10-11T11:16:04.176Z,1018.28
2022-10-11T11:17:02.894Z,1018.29
2022-10-11T11:18:03.001Z,1018.27
2022-10-11T11:19:02.889Z,1018.28
2022-10-11T11:20:02.543Z,1018.26
2022-10-11T11:21:02.932Z,1018.25
2022-10-11T11:22:03.433Z,1018.23
2022-10-11T11:23:03.623Z,1018.23
2022-10-11T11:24:03.615Z,1018.22
2022-10-11T11:25:03.472Z,1018.22
2022-10-11T11:26:03.904Z,1018.19
2022-10-11T11:27:03.573Z,1018.21
2022-10-11T11:28:03.256Z,1018.21
2022-10-11T11:29:03.227Z,1018.23
2022-10-11T11:30:03.402Z,1018.18
2022-10-11T11:31:03.743Z,1018.16
2022-10-11T11:32:03.727Z,1018.18
2022-10-11T11:33:03.672Z,1018.19
2022-10-11T11:34:03.448Z,1018.15
2022-10-11T11:35:03.985Z,1018.22
2022-10-11T11:36:03.850Z,1018.17
2022-10-11T11:37:03.143Z,1018.14
2022-10-11T11:38:06.375Z,1018.14
2022-10-11T11:39:02.700Z,1018.08
2022-10-11T11:40:03.231Z,1018.10
2022-10-11T11:41:03.470Z,1018.07
2022-10-11T11:42:03.805Z,1018.05
2022-10-11T11:43:03.957Z,1018.03
2022-10-11T11:44:03.598Z,1018.05
2022-10-11T11:45:03.646Z,1018.03
2022-10-11T11:46:03.737Z,1017.99
2022-10-11T11:47:02.946Z,1017.99
2022-10-11T11:48:03.363Z,1018.00
2022-10-11T11:49:03.519Z,1018.01
2022-10-11T11:50:03.026Z,1017.94
2022-10-11T11:51:03.215Z,1017.94
2022-10-11T11:52:03.458Z,1017.87
2022-10-11T11:53:03.069Z,1017.93
2022-10-11T11:54:03.019Z,1017.86
2022-10-11T11:55:04.266Z,1017.90
2022-10-11T11:56:03.593Z,1017.88
2022-10-11T11:57:03.710Z,1017.92
2022-10-11T11:58:07.097Z,1017.92
2022-10-11T11:59:03.799Z,1017.90
2022-10-11T12:00:03.455Z,1017.89
2022-10-11T12:01:03.793Z,1017.89
2022-10-11T12:02:02.758Z,1017.91
2022-10-11T12:03:02.783Z,1017.91
2022-10-11T12:04:02.215Z,1017.87
2022-10-11T12:05:02.405Z,1017.86
2022-10-11T12:06:02.306Z,1017.85